createdAt,value
2023-01-02T01:00:06.506Z,4.70
2023-01-02T01:07:29.578Z,4.80
2023-01-02T01:44:42.596Z,4.50
2023-01-02T01:47:28.760Z,4.50
2023-01-02T01:50:20.457Z,4.50
2023-01-02T01:52:58.511Z,4.50
2023-01-02T01:55:39.656Z,4.50
2023-01-02T01:58:14.010Z,4.40
2023-01-02T02:00:42.723Z,4.40
2023-01-02T02:03:14.102Z,4.40
2023-01-02T02:05:42.390Z,4.40
2023-01-02T02:08:45.673Z,4.40
2023-01-02T02:11:14.300Z,4.40
2023-01-02T02:16:17.711Z,4.30
2023-01-02T02:18:57.336Z,4.30
2023-01-02T02:21:54.560Z,4.20
2023-01-02T02:24:58.147Z,4.20
2023-01-02T02:27:43.627Z,4.10
2023-01-02T02:30:35.929Z,4.10
2023-01-02T02:33:45.087Z,4.10
2023-01-02T02:36:36.335Z,4.00
2023-01-02T02:39:34.710Z,4.10
2023-01-02T02:44:54.317Z,4.10
2023-01-02T02:47:33.658Z,4.20
2023-01-02T02:50:12.059Z,4.10
2023-01-02T02:52:54.598Z,4.30
2023-01-02T02:55:28.203Z,4.20
2023-01-02T02:57:57.787Z,4.20
2023-01-02T03:05:37.223Z,4.20
2023-01-02T03:08:17.002Z,4.10
2023-01-02T03:10:56.721Z,4.00
2023-01-02T03:13:43.019Z,3.90
2023-01-02T03:18:46.840Z,3.90
2023-01-02T03:21:17.385Z,3.90
2023-01-02T03:23:47.103Z,3.80
2023-01-02T03:26:17.643Z,3.70
2023-01-02T03:28:47.992Z,3.60
2023-01-02T03:31:21.042Z,3.60
2023-01-02T03:33:54.388Z,3.70
2023-01-02T03:36:25.503Z,3.70
2023-01-02T03:39:05.921Z,3.70
2023-01-02T03:41:42.785Z,3.70
2023-01-02T03:44:12.556Z,3.60
2023-01-02T03:46:44.140Z,3.70
2023-01-02T03:49:21.502Z,3.70
2023-01-02T03:54:17.291Z,3.60
2023-01-02T03:57:08.374Z,3.60
2023-01-02T03:59:49.860Z,3.60
2023-01-02T04:05:02.693Z,3.60
2023-01-02T04:07:37.994Z,3.60
2023-01-02T04:10:07.659Z,3.60
2023-01-02T04:12:37.132Z,3.60
2023-01-02T04:15:07.809Z,3.60
2023-01-02T04:17:45.123Z,3.60
2023-01-02T04:20:20.102Z,3.50
2023-01-02T04:23:07.051Z,3.50
2023-01-02T04:26:05.906Z,3.50
2023-01-02T04:28:34.527Z,3.50
2023-01-02T04:31:15.836Z,3.60
2023-01-02T04:33:53.345Z,3.60
2023-01-02T04:41:27.242Z,3.70
2023-01-02T04:43:57.586Z,3.70
2023-01-02T04:46:25.734Z,3.70
2023-01-02T04:53:49.013Z,3.70
2023-01-02T04:58:44.816Z,3.60
2023-01-02T05:03:41.904Z,3.60
2023-01-02T05:08:37.682Z,3.70
2023-01-02T05:11:16.958Z,3.70
2023-01-02T05:16:12.027Z,3.70
2023-01-02T05:21:28.418Z,3.60
2023-01-02T05:33:54.355Z,3.60
2023-01-02T05:41:16.840Z,3.70
2023-01-02T05:46:15.210Z,3.70
2023-01-02T05:51:11.531Z,3.60
2023-01-02T05:58:37.224Z,3.60
2023-01-02T06:01:09.844Z,3.60
2023-01-02T06:06:09.561Z,3.60
2023-01-02T06:08:37.646Z,3.50
2023-01-02T06:11:05.513Z,3.50
2023-01-02T06:16:01.351Z,3.50
2023-01-02T06:18:30.132Z,3.50
2023-01-02T06:21:00.954Z,3.50
2023-01-02T06:23:28.467Z,3.50
2023-01-02T07:27:30.763Z,3.20
2023-01-02T07:52:09.590Z,3.40
2023-01-02T08:36:42.188Z,3.90
2023-01-02T08:41:41.059Z,4.10
2023-01-02T08:46:42.277Z,4.30
2023-01-02T08:56:32.809Z,4.60
2023-01-02T08:59:08.448Z,4.70
2023-01-02T09:11:45.200Z,5.00
2023-01-02T09:33:55.124Z,6.00
2023-01-02T09:36:22.688Z,6.10
2023-01-02T09:38:57.634Z,6.20
2023-01-02T09:41:38.156Z,6.30
2023-01-02T09:44:06.678Z,6.40
2023-01-02T09:46:51.524Z,6.50
2023-01-02T09:49:24.692Z,6.60
2023-01-02T09:54:28.234Z,6.70
2023-01-02T09:57:15.266Z,6.60
2023-01-02T10:00:11.355Z,6.90
2023-01-02T10:03:07.652Z,7.00
2023-01-02T10:08:31.773Z,7.20
2023-01-02T10:11:18.737Z,7.10
2023-01-02T10:14:19.178Z,7.30
2023-01-02T10:16:50.574Z,7.40
2023-01-02T10:19:44.128Z,7.60
2023-01-02T10:22:16.530Z,7.60
2023-01-02T10:24:57.517Z,7.50
2023-01-02T10:27:32.855Z,7.70
2023-01-02T10:30:19.970Z,7.90
2023-01-02T10:32:58.376Z,8.00
2023-01-02T10:37:56.350Z,8.20
2023-01-02T10:40:24.215Z,8.30
2023-01-02T10:42:59.892Z,8.30
2023-01-02T10:50:24.441Z,8.50
2023-01-02T10:53:07.676Z,8.60
2023-01-02T10:55:38.898Z,8.70
2023-01-02T10:58:15.599Z,8.80
2023-01-02T11:03:28.112Z,9.10
2023-01-02T11:06:02.179Z,9.20
2023-01-02T11:08:40.596Z,9.30
2023-01-02T11:11:18.105Z,9.40
2023-01-02T11:13:53.841Z,9.40
2023-01-02T11:18:54.729Z,9.50
2023-01-02T11:21:36.654Z,9.60
2023-01-02T11:24:06.200Z,9.70
2023-01-02T11:26:34.466Z,9.70
2023-01-02T11:29:09.858Z,9.80
2023-01-02T11:31:44.544Z,9.90
2023-01-02T11:34:21.407Z,9.90
2023-01-02T11:37:06.396Z,9.90
2023-01-02T11:39:34.540Z,10.00
2023-01-02T11:42:27.038Z,9.80
2023-01-02T11:45:17.242Z,10.10
2023-01-02T11:47:57.709Z,10.30
2023-01-02T11:50:27.371Z,10.40
2023-01-02T11:53:14.972Z,10.20
2023-01-02T11:55:52.726Z,10.20
2023-01-02T12:01:17.920Z,10.60
2023-01-02T12:06:40.105Z,10.30
2023-01-02T12:09:12.375Z,10.10
2023-01-02T12:11:51.177Z,10.30
2023-01-02T12:14:39.692Z,10.30
2023-01-02T12:17:33.464Z,10.30
2023-01-02T12:20:31.616Z,10.70
2023-01-02T12:23:29.288Z,10.20
2023-01-02T12:26:09.698Z,10.10
2023-01-02T12:28:54.832Z,10.20
2023-01-02T12:31:36.380Z,10.30
2023-01-02T12:36:55.632Z,10.30
2023-01-02T12:39:50.274Z,10.40
2023-01-02T12:44:54.898Z,10.30
2023-01-02T12:47:55.204Z,10.30
2023-01-02T12:50:36.035Z,10.30
2023-01-02T12:54:18.924Z,10.50
2023-01-02T12:57:22.603Z,10.20
2023-01-02T13:00:04.891Z,10.10
2023-01-02T13:05:06.480Z,10.20
2023-01-02T13:07:41.045Z,10.20
2023-01-02T13:10:15.813Z,10.10
2023-01-02T13:12:44.412Z,10.10
2023-01-02T13:15:25.126Z,10.00
2023-01-02T13:20:24.985Z,10.00
2023-01-02T13:25:23.839Z,10.00
2023-01-02T13:27:52.334Z,10.00
2023-01-02T13:30:34.453Z,10.20
2023-01-02T13:33:33.023Z,9.90
2023-01-02T13:36:02.277Z,9.90
2023-01-02T13:38:30.952Z,9.90
2023-01-02T13:40:59.964Z,10.10
2023-01-02T13:43:30.950Z,9.90
2023-01-02T13:48:32.614Z,9.90
2023-01-02T13:51:07.659Z,9.90
2023-01-02T13:53:43.619Z,10.50
2023-01-02T13:56:30.713Z,9.90
2023-01-02T14:04:12.896Z,9.70
2023-01-02T14:06:50.008Z,9.70
2023-01-02T14:09:22.090Z,9.60
2023-01-02T14:17:17.527Z,9.60
2023-01-02T14:19:45.166Z,9.50
2023-01-02T14:22:19.212Z,9.50
2023-01-02T14:24:47.992Z,9.40
2023-01-02T14:27:20.365Z,9.40
2023-01-02T14:30:04.805Z,9.30
2023-01-02T14:37:38.865Z,9.30
2023-01-02T14:40:22.621Z,9.20
2023-01-02T14:43:31.404Z,9.30
2023-01-02T14:48:39.696Z,8.90
2023-01-02T14:51:16.883Z,9.20
2023-01-02T14:53:54.539Z,8.70
2023-01-02T14:56:26.666Z,9.00
2023-01-02T15:01:43.399Z,8.70
2023-01-02T15:04:18.843Z,8.60
2023-01-02T15:06:51.573Z,8.70
2023-01-02T15:09:31.276Z,8.70
2023-01-02T15:12:19.330Z,8.60
2023-01-02T15:14:46.701Z,8.30
2023-01-02T15:17:21.084Z,8.50
2023-01-02T15:19:48.477Z,8.30
2023-01-02T15:22:21.596Z,8.20
2023-01-02T15:24:50.537Z,8.40
2023-01-02T15:27:26.522Z,8.80
2023-01-02T15:29:55.883Z,8.30
2023-01-02T15:32:28.078Z,8.40
2023-01-02T15:35:11.128Z,8.40
2023-01-02T15:37:45.700Z,8.10
2023-01-02T15:40:38.011Z,8.10
2023-01-02T15:43:25.775Z,8.10
2023-01-02T15:45:53.156Z,8.00
2023-01-02T15:48:22.044Z,7.90
2023-01-02T15:50:51.776Z,8.00
2023-01-02T15:53:27.545Z,7.90
2023-01-02T15:58:28.923Z,7.80
2023-01-02T16:01:18.687Z,7.70
2023-01-02T16:04:02.223Z,7.70
2023-01-02T16:06:42.736Z,7.60
2023-01-02T16:09:31.458Z,7.70
2023-01-02T16:12:00.985Z,7.60
2023-01-02T16:14:35.319Z,7.60
2023-01-02T16:17:19.037Z,7.50
2023-01-02T16:20:00.031Z,7.50
2023-01-02T16:25:17.079Z,7.50
2023-01-02T16:28:05.024Z,7.50
2023-01-02T16:31:08.474Z,7.30
2023-01-02T16:36:05.519Z,7.20
2023-01-02T16:38:53.486Z,7.10
2023-01-02T16:41:48.004Z,7.30
2023-01-02T16:44:17.900Z,7.30
2023-01-02T16:46:49.694Z,7.30
2023-01-02T16:49:19.261Z,7.20
2023-01-02T16:51:48.073Z,7.20
2023-01-02T16:54:16.484Z,7.20
2023-01-02T17:06:32.919Z,7.00
2023-01-02T17:08:59.667Z,7.50
2023-01-02T17:40:58.212Z,7.00
2023-01-02T17:43:26.292Z,7.00
2023-01-02T17:45:53.459Z,6.90
2023-01-02T17:56:21.177Z,6.90
2023-01-02T18:01:15.460Z,6.80
2023-01-02T18:11:06.609Z,6.90
2023-01-02T18:13:38.437Z,6.90
2023-01-02T18:16:16.441Z,6.90
2023-01-02T18:18:44.715Z,6.80
2023-01-02T18:21:17.049Z,6.80
2023-01-02T18:23:45.309Z,6.70
2023-01-02T18:26:14.178Z,6.70
2023-01-02T18:28:49.376Z,6.80
2023-01-02T18:31:19.317Z,6.70
2023-01-02T18:36:21.574Z,6.70
2023-01-02T18:38:50.633Z,6.60
2023-01-02T18:43:45.577Z,6.80
2023-01-02T18:47:02.143Z,6.50
2023-01-02T18:49:24.496Z,6.70
2023-01-02T18:52:17.133Z,6.60
2023-01-02T18:54:46.709Z,6.70
2023-01-02T18:57:22.755Z,6.80
2023-01-02T18:59:51.600Z,6.70
2023-01-02T19:02:39.568Z,6.80
2023-01-02T19:05:27.977Z,6.70
2023-01-02T19:08:07.876Z,6.70
2023-01-02T19:10:42.450Z,6.70
2023-01-02T19:13:27.630Z,6.60
2023-01-02T19:16:02.651Z,6.70
2023-01-02T19:18:46.999Z,6.60
2023-01-02T19:21:31.148Z,6.50
2023-01-02T19:24:18.887Z,6.60
2023-01-02T19:26:51.051Z,6.60
2023-01-02T19:29:27.133Z,6.60
2023-01-02T19:32:23.057Z,6.50
2023-01-02T19:34:51.867Z,6.60
2023-01-02T19:37:41.634Z,6.60
2023-01-02T19:40:19.324Z,6.60
2023-01-02T19:42:48.135Z,6.60
2023-01-02T19:45:23.437Z,6.60
2023-01-02T19:47:52.410Z,6.50
2023-01-02T19:50:22.174Z,6.60
2023-01-02T19:57:46.145Z,6.60
2023-01-02T20:00:15.351Z,6.40
2023-01-02T20:02:45.317Z,6.60
2023-01-02T20:17:38.929Z,6.50
2023-01-02T20:20:07.908Z,6.50
2023-01-02T20:32:24.265Z,6.50
2023-01-02T20:39:52.282Z,6.60
2023-01-02T20:44:47.231Z,6.50
2023-01-02T20:49:41.559Z,6.50
2023-01-02T21:04:32.572Z,6.60
2023-01-02T21:29:10.166Z,6.30
2023-01-02T21:49:09.591Z,6.30
2023-01-02T22:41:25.683Z,7.10
2023-01-02T22:43:53.315Z,7.10
2023-01-02T22:46:27.220Z,7.30
2023-01-02T22:51:42.910Z,7.30
2023-01-02T22:54:16.877Z,7.30
2023-01-02T23:01:43.074Z,7.30
2023-01-02T23:04:21.636Z,7.40
2023-01-02T23:07:13.996Z,7.30
2023-01-02T23:27:08.515Z,7.40
2023-01-02T23:29:36.317Z,7.40
2023-01-02T23:36:59.867Z,7.60
2023-01-02T23:39:30.060Z,7.60
2023-01-02T23:41:57.813Z,7.70
2023-01-02T23:46:53.812Z,7.90
2023-01-02T23:54:17.215Z,8.00
2023-01-02T23:56:46.697Z,8.00
2023-01-02T23:59:17.366Z,8.10
